Time;durP1;ratioP1;P1;durP2;ratioP2;P2;SDS_P1;SDS_P2;PMS_P1;PMS_P2;Temp;Humidity;BMP_temperature;BMP_pressure;BME280_temperature;BME280_humidity;BME280_pressure;Samples;Min_cycle;Max_cycle;Signal;HPM_P1;HPM_P2
2022/07/25 00:00:31;;;;;;;9.65;8.43;;;;;;;;;;4977017;28;20210;-75
2022/07/25 00:02:59;;;;;;;11.00;8.23;;;;;;;;;;4976342;28;20232;-75
2022/07/25 00:05:31;;;;;;;11.05;8.40;;;;;;;;;;4976847;28;20217;-75
2022/07/25 00:08:05;;;;;;;9.13;8.32;;;;;;;;;;4976887;28;20241;-75
2022/07/25 00:10:33;;;;;;;9.63;8.60;;;;;;;;;;4977007;28;20722;-75
2022/07/25 00:13:02;;;;;;;12.20;8.63;;;;;;;;;;4976353;28;20206;-74
2022/07/25 00:15:30;;;;;;;9.40;8.50;;;;;;;;;;4976566;28;20218;-74
2022/07/25 00:17:59;;;;;;;8.77;7.80;;;;;;;;;;4976741;28;20230;-75
2022/07/25 00:20:27;;;;;;;9.52;8.63;;;;;;;;;;4976852;28;20284;-75
2022/07/25 00:22:57;;;;;;;8.85;7.70;;;;;;;;;;4976716;28;20228;-75
2022/07/25 00:25:25;;;;;;;9.82;8.77;;;;;;;;;;4976632;28;20206;-75
2022/07/25 00:27:54;;;;;;;12.02;8.60;;;;;;;;;;4976728;28;20277;-75
2022/07/25 00:30:22;;;;;;;9.88;7.85;;;;;;;;;;4976569;28;20221;-75
2022/07/25 00:32:51;;;;;;;10.45;8.23;;;;;;;;;;4976045;28;20205;-75
2022/07/25 00:35:19;;;;;;;9.15;8.13;;;;;;;;;;4976171;28;20206;-75
2022/07/25 00:37:48;;;;;;;10.88;8.38;;;;;;;;;;4976319;28;20237;-75
2022/07/25 00:40:17;;;;;;;8.70;7.82;;;;;;;;;;4976488;28;20265;-75
2022/07/25 00:42:46;;;;;;;13.93;8.85;;;;;;;;;;4976606;28;20300;-75
2022/07/25 00:45:15;;;;;;;9.02;8.10;;;;;;;;;;4976526;28;20202;-75
2022/07/25 00:47:43;;;;;;;9.63;8.48;;;;;;;;;;4976289;28;20230;-75
2022/07/25 00:50:11;;;;;;;9.25;8.38;;;;;;;;;;4976387;28;20221;-75
2022/07/25 00:52:40;;;;;;;10.27;8.95;;;;;;;;;;4976459;28;20205;-75
2022/07/25 00:55:09;;;;;;;9.65;8.20;;;;;;;;;;4976373;28;20574;-75
2022/07/25 00:57:38;;;;;;;9.27;8.38;;;;;;;;;;4976388;28;20575;-75
2022/07/25 01:00:08;;;;;;;9.35;8.45;;;;;;;;;;4976434;28;20205;-75
2022/07/25 01:02:37;;;;;;;9.07;8.10;;;;;;;;;;4976372;28;20218;-75
2022/07/25 01:05:06;;;;;;;9.13;7.68;;;;;;;;;;4975837;28;20202;-75
2022/07/25 01:07:38;;;;;;;8.95;8.05;;;;;;;;;;4975828;28;20226;-75
2022/07/25 01:10:07;;;;;;;8.75;7.95;;;;;;;;;;4975695;28;20202;-75
2022/07/25 01:12:47;;;;;;;9.43;8.52;;;;;;;;;;4975496;28;20252;-75
2022/07/25 01:15:16;;;;;;;10.30;8.73;;;;;;;;;;4975819;28;20643;-75
2022/07/25 01:17:45;;;;;;;9.18;8.10;;;;;;;;;;4975591;28;20662;-75
2022/07/25 01:20:15;;;;;;;9.43;8.52;;;;;;;;;;4975448;28;20214;-74
2022/07/25 01:22:44;;;;;;;10.30;8.75;;;;;;;;;;4975501;28;20298;-75
2022/07/25 01:25:12;;;;;;;11.18;9.27;;;;;;;;;;4975882;28;20216;-75
2022/07/25 01:27:41;;;;;;;9.75;8.75;;;;;;;;;;4975617;28;20229;-75
2022/07/25 01:30:12;;;;;;;8.95;8.05;;;;;;;;;;4975864;28;20206;-75
2022/07/25 01:32:40;;;;;;;10.20;8.68;;;;;;;;;;4975731;28;20190;-75
2022/07/25 01:35:09;;;;;;;9.07;8.27;;;;;;;;;;4975709;28;20205;-75
2022/07/25 01:37:39;;;;;;;9.23;8.38;;;;;;;;;;4975654;28;20226;-74
2022/07/25 01:40:12;;;;;;;10.70;8.52;;;;;;;;;;4975452;28;20228;-75
2022/07/25 01:42:41;;;;;;;10.02;9.02;;;;;;;;;;4975308;28;20210;-75
2022/07/25 01:45:10;;;;;;;10.00;9.00;;;;;;;;;;4975209;28;20205;-75
2022/07/25 01:47:39;;;;;;;11.43;9.50;;;;;;;;;;4975266;28;20229;-75
2022/07/25 01:50:08;;;;;;;10.10;9.10;;;;;;;;;;4975472;28;20206;-75
2022/07/25 01:52:38;;;;;;;10.52;9.30;;;;;;;;;;4974666;28;20209;-75
2022/07/25 01:55:08;;;;;;;10.52;9.50;;;;;;;;;;4975284;28;20214;-75
2022/07/25 01:57:38;;;;;;;10.57;9.50;;;;;;;;;;4975481;28;20229;-75
2022/07/25 02:00:08;;;;;;;10.05;8.98;;;;;;;;;;4975239;28;20574;-75
2022/07/25 02:02:37;;;;;;;9.93;9.02;;;;;;;;;;4975348;28;20671;-75
2022/07/25 02:05:07;;;;;;;9.73;8.65;;;;;;;;;;4975292;28;20234;-75
2022/07/25 02:07:36;;;;;;;9.43;8.48;;;;;;;;;;4974984;28;20236;-75
2022/07/25 02:10:05;;;;;;;10.65;8.70;;;;;;;;;;4975012;28;20253;-75
2022/07/25 02:12:35;;;;;;;8.82;7.93;;;;;;;;;;4975445;28;20604;-75
2022/07/25 02:15:03;;;;;;;8.45;7.63;;;;;;;;;;4975033;28;20257;-75
2022/07/25 02:17:32;;;;;;;8.77;8.07;;;;;;;;;;4975254;28;20225;-75
2022/07/25 02:20:00;;;;;;;9.40;8.60;;;;;;;;;;4974993;28;20252;-75
2022/07/25 02:22:29;;;;;;;9.52;8.63;;;;;;;;;;4975159;28;20679;-75
2022/07/25 02:24:57;;;;;;;9.48;8.38;;;;;;;;;;4975105;28;20760;-75
2022/07/25 02:27:25;;;;;;;8.98;7.65;;;;;;;;;;4975368;28;20222;-75
2022/07/25 02:29:55;;;;;;;8.82;8.05;;;;;;;;;;4975320;28;20202;-75
2022/07/25 02:32:23;;;;;;;9.50;8.48;;;;;;;;;;4975112;28;20667;-75
2022/07/25 02:34:53;;;;;;;9.82;8.48;;;;;;;;;;4975276;28;20988;-75
2022/07/25 02:37:21;;;;;;;10.35;8.48;;;;;;;;;;4974925;28;20233;-74
2022/07/25 02:39:49;;;;;;;9.07;8.30;;;;;;;;;;4974977;28;20198;-75
2022/07/25 02:42:18;;;;;;;9.50;8.18;;;;;;;;;;4975406;28;20702;-75
2022/07/25 02:44:46;;;;;;;12.18;9.35;;;;;;;;;;4974930;28;20221;-75
2022/07/25 02:47:16;;;;;;;10.63;9.43;;;;;;;;;;4974897;28;20757;-75
2022/07/25 02:49:44;;;;;;;10.02;9.13;;;;;;;;;;4974867;28;20229;-75
2022/07/25 02:52:13;;;;;;;10.67;9.60;;;;;;;;;;4974678;28;20434;-75
2022/07/25 02:54:41;;;;;;;10.30;9.30;;;;;;;;;;4974837;28;20206;-75
2022/07/25 02:57:09;;;;;;;10.23;9.20;;;;;;;;;;4978128;28;20225;-75
2022/07/25 02:59:38;;;;;;;10.33;9.23;;;;;;;;;;4978285;28;20210;-75
2022/07/25 03:02:06;;;;;;;10.25;9.20;;;;;;;;;;4978457;28;20210;-75
2022/07/25 03:04:36;;;;;;;10.18;9.38;;;;;;;;;;4978575;28;20226;-75
2022/07/25 03:07:04;;;;;;;10.10;9.20;;;;;;;;;;4978898;28;20218;-75
2022/07/25 03:09:33;;;;;;;9.80;9.00;;;;;;;;;;4978252;28;20276;-75
2022/07/25 03:12:01;;;;;;;10.13;9.10;;;;;;;;;;4978448;28;20206;-75
2022/07/25 03:14:30;;;;;;;9.43;8.63;;;;;;;;;;4977921;28;20632;-75
2022/07/25 03:16:58;;;;;;;9.70;8.90;;;;;;;;;;4978180;28;20225;-75
2022/07/25 03:19:27;;;;;;;10.23;9.23;;;;;;;;;;4978291;28;20309;-75
2022/07/25 03:21:56;;;;;;;10.03;8.27;;;;;;;;;;4977741;28;20213;-75
2022/07/25 03:24:25;;;;;;;9.57;8.75;;;;;;;;;;4977779;28;20350;-75
2022/07/25 03:26:53;;;;;;;9.57;8.67;;;;;;;;;;4977737;28;20229;-75
2022/07/25 03:29:22;;;;;;;9.65;8.77;;;;;;;;;;4977882;28;20597;-74
2022/07/25 03:31:50;;;;;;;9.53;8.63;;;;;;;;;;4977359;28;20210;-74
2022/07/25 03:34:19;;;;;;;9.43;8.52;;;;;;;;;;4978025;28;20210;-75
2022/07/25 03:36:47;;;;;;;10.88;8.73;;;;;;;;;;4977900;28;20284;-75
2022/07/25 03:39:17;;;;;;;8.80;8.00;;;;;;;;;;4977507;28;20269;-75
2022/07/25 03:41:46;;;;;;;8.87;8.07;;;;;;;;;;4977882;28;20214;-74
2022/07/25 03:44:14;;;;;;;9.67;8.40;;;;;;;;;;4977495;28;20225;-75
2022/07/25 03:46:42;;;;;;;8.37;7.57;;;;;;;;;;4977382;28;20229;-75
2022/07/25 03:49:11;;;;;;;8.47;7.77;;;;;;;;;;4977716;28;20651;-75
2022/07/25 03:51:39;;;;;;;8.93;8.03;;;;;;;;;;4977684;28;20655;-75
2022/07/25 03:54:12;;;;;;;9.23;8.10;;;;;;;;;;4977591;28;20202;-75
2022/07/25 03:56:43;;;;;;;9.43;8.27;;;;;;;;;;4976917;28;20230;-75
2022/07/25 03:59:12;;;;;;;11.50;7.90;;;;;;;;;;4977260;28;20190;-75
2022/07/25 04:01:41;;;;;;;9.47;7.70;;;;;;;;;;4977321;28;20210;-75
2022/07/25 04:04:09;;;;;;;8.90;8.00;;;;;;;;;;4968867;28;20609;-75
2022/07/25 04:06:38;;;;;;;8.13;7.43;;;;;;;;;;4976449;28;20723;-75
2022/07/25 04:09:07;;;;;;;7.33;6.70;;;;;;;;;;4977498;28;20202;-75
2022/07/25 04:11:37;;;;;;;7.95;7.25;;;;;;;;;;4976762;28;20554;-75
2022/07/25 04:14:07;;;;;;;7.07;6.35;;;;;;;;;;4976868;28;20229;-75
2022/07/25 04:16:36;;;;;;;7.47;6.78;;;;;;;;;;4976671;28;20233;-75
2022/07/25 04:19:07;;;;;;;6.43;5.82;;;;;;;;;;4976905;28;20714;-75
2022/07/25 04:21:36;;;;;;;6.67;6.07;;;;;;;;;;4976043;28;20214;-75
2022/07/25 04:24:04;;;;;;;6.80;5.80;;;;;;;;;;4976621;28;20214;-75
2022/07/25 04:26:33;;;;;;;6.30;5.70;;;;;;;;;;4976621;28;20566;-75
2022/07/25 04:29:02;;;;;;;6.40;5.68;;;;;;;;;;4976341;28;20233;-75
2022/07/25 04:31:32;;;;;;;8.48;5.70;;;;;;;;;;4976442;28;20206;-75
2022/07/25 04:34:01;;;;;;;6.10;5.60;;;;;;;;;;4976357;28;20210;-75
2022/07/25 04:36:29;;;;;;;6.25;5.75;;;;;;;;;;4961220;28;20264;-75
2022/07/25 04:38:57;;;;;;;5.38;4.97;;;;;;;;;;4976380;28;20280;-75
2022/07/25 04:41:26;;;;;;;5.70;5.20;;;;;;;;;;4975631;28;20618;-75
2022/07/25 04:43:54;;;;;;;5.57;5.07;;;;;;;;;;4976534;28;20209;-75
2022/07/25 04:46:23;;;;;;;6.85;5.00;;;;;;;;;;4975832;28;20236;-75
2022/07/25 04:48:53;;;;;;;5.60;5.00;;;;;;;;;;4976065;28;20206;-75
2022/07/25 04:51:21;;;;;;;5.25;4.50;;;;;;;;;;4975722;28;20210;-75
2022/07/25 04:53:50;;;;;;;5.53;4.90;;;;;;;;;;4976188;28;20678;-75
2022/07/25 04:56:18;;;;;;;5.45;4.93;;;;;;;;;;4975914;28;20651;-75
2022/07/25 04:58:47;;;;;;;7.63;5.25;;;;;;;;;;4975719;28;20206;-75
2022/07/25 05:01:16;;;;;;;5.90;5.32;;;;;;;;;;4969278;28;20342;-75
2022/07/25 05:03:44;;;;;;;5.80;5.20;;;;;;;;;;4976032;28;20742;-75
2022/07/25 05:06:19;;;;;;;6.78;5.18;;;;;;;;;;4975804;28;20225;-75
2022/07/25 05:08:47;;;;;;;5.15;4.70;;;;;;;;;;4974870;28;20221;-75
2022/07/25 05:11:16;;;;;;;5.30;4.80;;;;;;;;;;4975389;28;20213;-75
2022/07/25 05:13:44;;;;;;;5.50;5.05;;;;;;;;;;4975073;28;20256;-75
2022/07/25 05:16:12;;;;;;;5.60;5.10;;;;;;;;;;4974841;28;20198;-75
2022/07/25 05:18:41;;;;;;;5.70;5.20;;;;;;;;;;4975029;28;20698;-76
2022/07/25 05:21:10;;;;;;;6.55;5.32;;;;;;;;;;4974885;28;20221;-75
2022/07/25 05:23:40;;;;;;;7.13;4.70;;;;;;;;;;4974258;28;20213;-76
2022/07/25 05:26:08;;;;;;;5.82;5.22;;;;;;;;;;4975040;28;20737;-75
2022/07/25 05:28:37;;;;;;;5.80;5.18;;;;;;;;;;4974524;28;20205;-75
2022/07/25 05:31:05;;;;;;;6.80;4.78;;;;;;;;;;4975272;28;20217;-75
2022/07/25 05:33:35;;;;;;;8.05;5.22;;;;;;;;;;4974812;28;20248;-75
2022/07/25 05:36:04;;;;;;;5.45;4.68;;;;;;;;;;4974368;28;20213;-75
2022/07/25 05:38:32;;;;;;;5.70;4.47;;;;;;;;;;4974910;28;20690;-75
2022/07/25 05:41:02;;;;;;;7.50;4.85;;;;;;;;;;4974813;28;20268;-75
2022/07/25 05:43:30;;;;;;;5.18;4.68;;;;;;;;;;4975207;28;20202;-75
2022/07/25 05:46:01;;;;;;;5.72;4.90;;;;;;;;;;4975172;28;20233;-75
2022/07/25 05:48:29;;;;;;;5.45;4.82;;;;;;;;;;4974799;28;20205;-75
2022/07/25 05:50:58;;;;;;;5.30;4.60;;;;;;;;;;4974579;28;20213;-75
2022/07/25 05:53:35;;;;;;;7.88;4.80;;;;;;;;;;4976986;28;20214;-77
2022/07/25 05:56:05;;;;;;;5.50;4.90;;;;;;;;;;4974428;28;20201;-73
2022/07/25 05:58:33;;;;;;;6.80;4.82;;;;;;;;;;4974911;28;20347;-74
2022/07/25 06:01:02;;;;;;;7.25;5.03;;;;;;;;;;4973692;28;20268;-74
2022/07/25 06:03:30;;;;;;;5.50;5.00;;;;;;;;;;4973876;28;20213;-74
2022/07/25 06:05:58;;;;;;;4.95;4.55;;;;;;;;;;4972774;28;20225;-74
2022/07/25 06:08:27;;;;;;;5.38;4.68;;;;;;;;;;4974041;28;20684;-74
2022/07/25 06:10:56;;;;;;;4.85;4.40;;;;;;;;;;4973442;28;20593;-74
2022/07/25 06:13:26;;;;;;;4.90;4.50;;;;;;;;;;4972432;28;20210;-73
2022/07/25 06:15:55;;;;;;;5.70;4.90;;;;;;;;;;4973955;28;20671;-74
2022/07/25 06:18:24;;;;;;;5.63;4.80;;;;;;;;;;4973753;28;20325;-74
2022/07/25 06:20:52;;;;;;;5.20;4.70;;;;;;;;;;4973154;28;20217;-74
2022/07/25 06:23:21;;;;;;;5.55;5.05;;;;;;;;;;4970345;28;20202;-74
2022/07/25 06:25:54;;;;;;;5.03;4.63;;;;;;;;;;4968082;28;20264;-74
2022/07/25 06:28:23;;;;;;;5.63;5.05;;;;;;;;;;4973033;28;20236;-74
2022/07/25 06:30:53;;;;;;;5.90;5.20;;;;;;;;;;4975322;28;20264;-74
2022/07/25 06:33:21;;;;;;;6.20;5.60;;;;;;;;;;4976183;28;20233;-74
2022/07/25 06:35:50;;;;;;;5.20;4.80;;;;;;;;;;4977297;28;20249;-74
2022/07/25 06:38:18;;;;;;;5.32;4.93;;;;;;;;;;4976726;28;20257;-73
2022/07/25 06:40:47;;;;;;;5.38;4.95;;;;;;;;;;4973770;28;20237;-74
2022/07/25 06:43:15;;;;;;;6.40;4.80;;;;;;;;;;4976307;28;20202;-73
2022/07/25 06:45:46;;;;;;;5.53;5.07;;;;;;;;;;4976808;28;20225;-74
2022/07/25 06:48:16;;;;;;;5.68;5.18;;;;;;;;;;4976193;28;20698;-74
2022/07/25 06:50:45;;;;;;;7.25;5.57;;;;;;;;;;4977089;28;20213;-74
2022/07/25 06:53:13;;;;;;;5.30;4.90;;;;;;;;;;4975420;28;20256;-73
2022/07/25 06:55:41;;;;;;;5.38;4.93;;;;;;;;;;4976397;28;20712;-74
2022/07/25 06:58:10;;;;;;;6.28;5.68;;;;;;;;;;4976939;28;20230;-74
2022/07/25 07:00:39;;;;;;;5.40;5.00;;;;;;;;;;4975792;28;20261;-74
2022/07/25 07:03:07;;;;;;;5.38;4.70;;;;;;;;;;4975952;28;20292;-74
2022/07/25 07:05:37;;;;;;;5.93;5.18;;;;;;;;;;4975575;28;20202;-74
2022/07/25 07:08:06;;;;;;;6.05;5.50;;;;;;;;;;4977090;28;20221;-74
2022/07/25 07:10:34;;;;;;;6.22;5.53;;;;;;;;;;4976456;28;20264;-74
2022/07/25 07:13:04;;;;;;;5.60;5.10;;;;;;;;;;4977310;28;20209;-74
2022/07/25 07:15:35;;;;;;;5.70;5.22;;;;;;;;;;4976703;28;20216;-74
2022/07/25 07:18:05;;;;;;;5.65;5.07;;;;;;;;;;4976385;28;20671;-74
2022/07/25 07:20:33;;;;;;;6.90;5.50;;;;;;;;;;4972027;28;20268;-74
2022/07/25 07:23:03;;;;;;;6.32;5.30;;;;;;;;;;4975743;28;20210;-74
2022/07/25 07:25:33;;;;;;;5.97;4.97;;;;;;;;;;4976302;28;20221;-74
2022/07/25 07:28:01;;;;;;;6.03;5.53;;;;;;;;;;4975823;28;20228;-74
2022/07/25 07:30:30;;;;;;;6.07;5.55;;;;;;;;;;4976121;28;20274;-74
2022/07/25 07:33:18;;;;;;;8.32;5.18;;;;;;;;;;4975487;28;20652;-74
2022/07/25 07:35:47;;;;;;;5.78;5.38;;;;;;;;;;4975680;28;20213;-74
2022/07/25 07:38:17;;;;;;;7.78;5.88;;;;;;;;;;4975758;28;20222;-74
2022/07/25 07:40:46;;;;;;;6.22;5.72;;;;;;;;;;4972733;28;20297;-73
2022/07/25 07:43:14;;;;;;;8.00;5.60;;;;;;;;;;4975104;28;20225;-74
2022/07/25 07:45:43;;;;;;;6.47;5.22;;;;;;;;;;4974657;28;20614;-74
2022/07/25 07:48:11;;;;;;;6.13;5.63;;;;;;;;;;4974829;28;20230;-74
2022/07/25 07:50:40;;;;;;;6.20;5.70;;;;;;;;;;4971265;28;20699;-75
2022/07/25 07:53:08;;;;;;;6.40;5.53;;;;;;;;;;4965502;28;20198;-74
2022/07/25 07:55:44;;;;;;;5.82;5.32;;;;;;;;;;4964815;28;20245;-74
2022/07/25 07:58:14;;;;;;;5.90;5.40;;;;;;;;;;4975828;28;20312;-74
2022/07/25 08:00:43;;;;;;;6.55;5.70;;;;;;;;;;4973084;28;20213;-74
2022/07/25 08:03:12;;;;;;;6.85;5.38;;;;;;;;;;4973157;28;20212;-74
2022/07/25 08:05:41;;;;;;;6.53;5.93;;;;;;;;;;4975283;28;20651;-74
2022/07/25 08:08:11;;;;;;;5.93;5.43;;;;;;;;;;4974846;28;20232;-74
2022/07/25 08:10:42;;;;;;;6.55;5.10;;;;;;;;;;4975311;28;20205;-74
2022/07/25 08:13:15;;;;;;;5.72;5.32;;;;;;;;;;4971809;28;20206;-74
2022/07/25 08:15:43;;;;;;;6.20;5.60;;;;;;;;;;4969687;28;20202;-74
2022/07/25 08:18:12;;;;;;;6.75;5.65;;;;;;;;;;4970983;28;20226;-74
2022/07/25 08:20:44;;;;;;;7.07;5.95;;;;;;;;;;4975926;28;20216;-74
2022/07/25 08:23:13;;;;;;;6.60;6.07;;;;;;;;;;4973107;28;20628;-74
2022/07/25 08:25:43;;;;;;;6.50;6.00;;;;;;;;;;4972646;28;20709;-74
2022/07/25 08:28:12;;;;;;;6.50;5.90;;;;;;;;;;4967346;28;20225;-73
2022/07/25 08:30:41;;;;;;;6.78;6.05;;;;;;;;;;4969411;28;20205;-74
2022/07/25 08:33:12;;;;;;;6.38;5.82;;;;;;;;;;4973693;28;20289;-74
2022/07/25 08:35:41;;;;;;;6.63;5.95;;;;;;;;;;4968026;28;20237;-74
2022/07/25 08:38:10;;;;;;;6.18;5.57;;;;;;;;;;4972650;28;20276;-74
2022/07/25 08:40:39;;;;;;;6.70;6.20;;;;;;;;;;4967410;28;20655;-74
2022/07/25 08:43:11;;;;;;;6.90;5.88;;;;;;;;;;4963548;28;20261;-74
2022/07/25 08:45:42;;;;;;;6.68;5.63;;;;;;;;;;4962766;28;20198;-74
2022/07/25 08:48:11;;;;;;;6.45;5.72;;;;;;;;;;4969108;28;20670;-74
2022/07/25 08:50:40;;;;;;;6.03;5.50;;;;;;;;;;4969294;28;20252;-74
2022/07/25 08:53:08;;;;;;;6.70;5.80;;;;;;;;;;4969382;28;20206;-75
2022/07/25 08:55:57;;;;;;;6.20;5.32;;;;;;;;;;4971417;28;20198;-74
2022/07/25 08:58:26;;;;;;;6.20;5.72;;;;;;;;;;4974011;28;20284;-74
2022/07/25 09:00:55;;;;;;;6.10;5.60;;;;;;;;;;4972429;28;20249;-74
2022/07/25 09:03:23;;;;;;;7.25;5.90;;;;;;;;;;4975608;28;20257;-74
2022/07/25 09:05:53;;;;;;;6.00;5.47;;;;;;;;;;4975155;28;20205;-75
2022/07/25 09:08:21;;;;;;;5.63;5.22;;;;;;;;;;4975162;28;20233;-74
2022/07/25 09:10:51;;;;;;;6.72;5.40;;;;;;;;;;4973080;28;20205;-74
2022/07/25 09:13:21;;;;;;;6.30;5.68;;;;;;;;;;4973770;28;20213;-74
2022/07/25 09:15:51;;;;;;;6.40;5.80;;;;;;;;;;4972989;28;20689;-74
2022/07/25 09:18:23;;;;;;;5.97;5.47;;;;;;;;;;4970514;28;20222;-74
2022/07/25 09:20:53;;;;;;;6.45;5.85;;;;;;;;;;4970795;28;20707;-74
2022/07/25 09:23:31;;;;;;;6.35;5.75;;;;;;;;;;4962045;28;20205;-74
2022/07/25 09:26:04;;;;;;;6.10;5.55;;;;;;;;;;4960320;28;20201;-74
2022/07/25 09:28:33;;;;;;;6.50;5.72;;;;;;;;;;4969269;28;20272;-74
2022/07/25 09:31:03;;;;;;;6.25;5.40;;;;;;;;;;4964441;28;20586;-74
2022/07/25 09:33:32;;;;;;;6.15;5.65;;;;;;;;;;4972287;28;20205;-74
2022/07/25 09:36:10;;;;;;;6.53;6.00;;;;;;;;;;4966434;28;20681;-75
2022/07/25 09:38:39;;;;;;;6.18;5.60;;;;;;;;;;4974170;28;20601;-74
2022/07/25 09:41:08;;;;;;;6.35;5.75;;;;;;;;;;4972683;28;20201;-74
2022/07/25 09:43:38;;;;;;;6.32;5.60;;;;;;;;;;4968009;28;20242;-74
2022/07/25 09:46:08;;;;;;;6.60;6.00;;;;;;;;;;4964725;28;20202;-74
2022/07/25 09:48:38;;;;;;;6.65;6.03;;;;;;;;;;4964929;28;20222;-74
2022/07/25 09:51:07;;;;;;;5.97;5.57;;;;;;;;;;4973249;28;20217;-74
2022/07/25 09:53:36;;;;;;;6.32;5.72;;;;;;;;;;4973704;28;20205;-74
2022/07/25 09:56:07;;;;;;;6.07;5.57;;;;;;;;;;4972047;28;20667;-74
2022/07/25 09:58:35;;;;;;;6.32;5.72;;;;;;;;;;4972577;28;20208;-74
2022/07/25 10:01:05;;;;;;;6.15;5.65;;;;;;;;;;4972303;28;20647;-74
2022/07/25 10:03:45;;;;;;;5.70;5.25;;;;;;;;;;4973123;28;21430;-74
2022/07/25 10:06:19;;;;;;;6.30;5.70;;;;;;;;;;4973315;28;20285;-74
2022/07/25 10:08:48;;;;;;;5.85;5.45;;;;;;;;;;4973732;28;20284;-74
2022/07/25 10:11:20;;;;;;;6.68;6.07;;;;;;;;;;4971501;28;20217;-74
2022/07/25 10:13:49;;;;;;;6.38;5.78;;;;;;;;;;4971323;28;20206;-75
2022/07/25 10:16:18;;;;;;;6.10;5.50;;;;;;;;;;4973910;28;20210;-74
2022/07/25 10:18:52;;;;;;;6.10;5.57;;;;;;;;;;4974664;28;20222;-74
2022/07/25 10:21:21;;;;;;;7.80;5.70;;;;;;;;;;4974293;28;20225;-74
2022/07/25 10:23:58;;;;;;;7.30;5.70;;;;;;;;;;4973910;28;20672;-74
2022/07/25 10:26:26;;;;;;;6.15;5.65;;;;;;;;;;4972849;28;20233;-74
2022/07/25 10:28:56;;;;;;;6.45;5.75;;;;;;;;;;4973013;28;20310;-73
2022/07/25 10:31:26;;;;;;;6.10;5.50;;;;;;;;;;4970745;28;20224;-73
2022/07/25 10:33:58;;;;;;;7.00;5.90;;;;;;;;;;4972874;28;20217;-73
2022/07/25 10:36:29;;;;;;;6.90;6.30;;;;;;;;;;4973413;28;20281;-74
2022/07/25 10:38:58;;;;;;;6.45;5.90;;;;;;;;;;4973567;28;20227;-73
2022/07/25 10:41:27;;;;;;;6.30;5.70;;;;;;;;;;4963364;28;20571;-74
2022/07/25 10:43:57;;;;;;;6.32;5.72;;;;;;;;;;4969342;28;20209;-74
2022/07/25 10:46:29;;;;;;;5.85;5.25;;;;;;;;;;4961764;28;20221;-73
2022/07/25 10:49:00;;;;;;;6.82;6.18;;;;;;;;;;4973754;28;20218;-74
2022/07/25 10:51:29;;;;;;;6.32;5.82;;;;;;;;;;4973194;28;20209;-74
2022/07/25 10:53:58;;;;;;;9.82;6.35;;;;;;;;;;4971362;28;20213;-74
2022/07/25 10:56:27;;;;;;;6.47;5.88;;;;;;;;;;4972543;28;20284;-73
2022/07/25 10:58:57;;;;;;;6.38;5.88;;;;;;;;;;4973800;28;20205;-73
2022/07/25 11:01:26;;;;;;;7.05;6.22;;;;;;;;;;4972543;28;20202;-74
2022/07/25 11:03:55;;;;;;;7.03;6.32;;;;;;;;;;4972539;28;20260;-75
2022/07/25 11:06:32;;;;;;;7.85;5.70;;;;;;;;;;4972798;28;20257;-74
2022/07/25 11:09:00;;;;;;;7.05;6.13;;;;;;;;;;4969522;28;20229;-74
2022/07/25 11:11:39;;;;;;;6.28;5.68;;;;;;;;;;4971802;28;20321;-74
2022/07/25 11:14:15;;;;;;;6.55;5.95;;;;;;;;;;4969602;28;20202;-74
2022/07/25 11:16:43;;;;;;;8.50;5.85;;;;;;;;;;4968266;28;20237;-73
2022/07/25 11:19:19;;;;;;;6.35;5.85;;;;;;;;;;4973521;28;20204;-74
2022/07/25 11:21:50;;;;;;;6.70;5.65;;;;;;;;;;4974858;28;20217;-74
2022/07/25 11:24:19;;;;;;;6.80;6.28;;;;;;;;;;4976429;28;20618;-74
2022/07/25 11:26:48;;;;;;;7.13;6.15;;;;;;;;;;4975852;28;20233;-74
2022/07/25 11:29:22;;;;;;;6.65;5.90;;;;;;;;;;4976008;28;20226;-74
2022/07/25 11:31:54;;;;;;;7.05;6.30;;;;;;;;;;4975457;28;20221;-74
2022/07/25 11:34:23;;;;;;;6.28;5.68;;;;;;;;;;4975043;28;20205;-74
2022/07/25 11:36:56;;;;;;;6.57;5.82;;;;;;;;;;4975242;28;20230;-75
2022/07/25 11:39:26;;;;;;;6.72;5.90;;;;;;;;;;4975924;28;20288;-75
2022/07/25 11:42:04;;;;;;;6.00;5.50;;;;;;;;;;4974695;28;20221;-75
2022/07/25 11:44:33;;;;;;;6.90;6.30;;;;;;;;;;4975537;28;20216;-74
2022/07/25 11:47:01;;;;;;;7.15;5.95;;;;;;;;;;4980046;28;20230;-74
2022/07/25 11:49:30;;;;;;;7.00;6.30;;;;;;;;;;4975978;28;20341;-74
2022/07/25 11:52:00;;;;;;;6.68;6.07;;;;;;;;;;4976231;28;20237;-74
2022/07/25 11:54:28;;;;;;;6.55;5.97;;;;;;;;;;4975593;28;20206;-75
2022/07/25 11:56:56;;;;;;;6.82;5.90;;;;;;;;;;4976485;28;20233;-75
2022/07/25 11:59:25;;;;;;;6.30;5.60;;;;;;;;;;4976159;28;20213;-74
2022/07/25 12:01:53;;;;;;;5.68;5.28;;;;;;;;;;4976919;28;20206;-74
2022/07/25 12:04:22;;;;;;;6.93;5.43;;;;;;;;;;4976516;28;20222;-74
2022/07/25 12:06:50;;;;;;;7.10;5.20;;;;;;;;;;4976516;28;20226;-74
2022/07/25 12:09:21;;;;;;;6.05;5.55;;;;;;;;;;4976021;28;20334;-74
2022/07/25 12:11:50;;;;;;;6.40;5.78;;;;;;;;;;4976022;28;20256;-74
2022/07/25 12:14:18;;;;;;;5.47;4.97;;;;;;;;;;4976475;28;20214;-75
2022/07/25 12:16:47;;;;;;;6.55;5.40;;;;;;;;;;4975467;28;20221;-75
2022/07/25 12:19:19;;;;;;;5.82;5.20;;;;;;;;;;4975997;28;20198;-75
2022/07/25 12:21:48;;;;;;;5.35;4.95;;;;;;;;;;4976072;28;20217;-74
2022/07/25 12:24:16;;;;;;;5.88;5.32;;;;;;;;;;4979942;28;20210;-74
2022/07/25 12:26:46;;;;;;;6.35;5.75;;;;;;;;;;4975545;28;20222;-74
2022/07/25 12:29:14;;;;;;;6.03;5.53;;;;;;;;;;4975707;28;20230;-75
2022/07/25 12:31:43;;;;;;;6.50;5.68;;;;;;;;;;4976555;28;20210;-74
2022/07/25 12:34:11;;;;;;;5.85;5.25;;;;;;;;;;4976030;28;20214;-74
2022/07/25 12:36:42;;;;;;;6.00;5.40;;;;;;;;;;4975630;28;20226;-74
2022/07/25 12:39:11;;;;;;;7.20;5.60;;;;;;;;;;4976143;28;20229;-75
2022/07/25 12:41:41;;;;;;;6.00;5.50;;;;;;;;;;4983039;28;20694;-74
2022/07/25 12:44:11;;;;;;;6.40;5.47;;;;;;;;;;4975636;28;20201;-74
2022/07/25 12:46:40;;;;;;;6.00;5.40;;;;;;;;;;4975368;28;20226;-74
2022/07/25 12:49:16;;;;;;;8.02;6.00;;;;;;;;;;4975546;28;20217;-74
2022/07/25 12:51:45;;;;;;;7.50;5.53;;;;;;;;;;4975858;28;20337;-74
2022/07/25 12:54:14;;;;;;;7.45;5.78;;;;;;;;;;4974899;28;20213;-74
2022/07/25 12:56:49;;;;;;;6.15;5.55;;;;;;;;;;4975289;28;20726;-74
2022/07/25 12:59:20;;;;;;;6.82;6.10;;;;;;;;;;4974474;28;20237;-74
2022/07/25 13:01:48;;;;;;;6.82;6.22;;;;;;;;;;4975650;28;20246;-74
2022/07/25 13:07:03;;;;;;;6.28;5.78;;;;;;;;;;4973582;28;20261;-74
2022/07/25 13:09:32;;;;;;;6.80;6.10;;;;;;;;;;4974213;28;20233;-74
2022/07/25 13:12:01;;;;;;;7.47;6.07;;;;;;;;;;4972075;28;20194;-75
2022/07/25 13:14:31;;;;;;;6.60;6.00;;;;;;;;;;4968630;28;20327;-75
2022/07/25 13:16:59;;;;;;;5.97;5.45;;;;;;;;;;4971080;28;20226;-74
2022/07/25 13:22:11;;;;;;;6.90;6.20;;;;;;;;;;4974698;28;20205;-74
2022/07/25 13:24:40;;;;;;;6.47;5.88;;;;;;;;;;4976191;28;20270;-75
2022/07/25 13:27:08;;;;;;;6.70;6.10;;;;;;;;;;4970437;28;20225;-74
2022/07/25 13:29:38;;;;;;;6.45;5.75;;;;;;;;;;4971647;28;20222;-74
2022/07/25 13:32:06;;;;;;;6.78;6.10;;;;;;;;;;4955859;28;20214;-74
2022/07/25 13:34:35;;;;;;;6.32;5.70;;;;;;;;;;4960860;28;20212;-74
2022/07/25 13:37:04;;;;;;;7.60;5.90;;;;;;;;;;4963074;28;20225;-74
2022/07/25 13:39:34;;;;;;;6.10;5.60;;;;;;;;;;4974377;28;20256;-74
2022/07/25 13:42:03;;;;;;;6.30;5.70;;;;;;;;;;4974694;28;20198;-74
2022/07/25 13:44:32;;;;;;;6.10;5.60;;;;;;;;;;4968358;28;20228;-74
2022/07/25 13:47:06;;;;;;;6.75;5.60;;;;;;;;;;4971111;28;20230;-74
2022/07/25 13:49:35;;;;;;;6.60;5.95;;;;;;;;;;4955853;29;20219;-76
2022/07/25 13:52:04;;;;;;;6.50;5.95;;;;;;;;;;4973580;28;20618;-74
2022/07/25 13:54:32;;;;;;;5.90;5.40;;;;;;;;;;4972463;28;20210;-75
2022/07/25 13:57:02;;;;;;;6.43;5.93;;;;;;;;;;4971506;28;20666;-74
2022/07/25 13:59:30;;;;;;;6.45;5.95;;;;;;;;;;4972243;28;20205;-75
2022/07/25 14:01:59;;;;;;;7.25;6.60;;;;;;;;;;4966768;28;20231;-73
2022/07/25 14:04:29;;;;;;;5.93;5.43;;;;;;;;;;4973473;28;20301;-75
2022/07/25 14:06:58;;;;;;;7.00;6.28;;;;;;;;;;4974063;28;20230;-74
2022/07/25 14:09:26;;;;;;;8.70;6.03;;;;;;;;;;4974293;28;20702;-74
2022/07/25 14:11:54;;;;;;;9.93;6.60;;;;;;;;;;4972935;28;20257;-74
2022/07/25 14:14:23;;;;;;;6.85;6.25;;;;;;;;;;4985020;28;20209;-75
2022/07/25 14:16:51;;;;;;;7.00;6.30;;;;;;;;;;4973726;28;20221;-75
2022/07/25 14:19:20;;;;;;;7.63;6.93;;;;;;;;;;4973083;28;20214;-76
2022/07/25 14:21:50;;;;;;;7.55;6.88;;;;;;;;;;4973966;28;20213;-76
2022/07/25 14:24:18;;;;;;;9.15;6.88;;;;;;;;;;4974540;28;20702;-76
2022/07/25 14:26:47;;;;;;;7.10;6.40;;;;;;;;;;4974188;28;20225;-76
2022/07/25 14:29:31;;;;;;;6.93;6.38;;;;;;;;;;4974400;28;20210;-76
2022/07/25 14:32:03;;;;;;;7.53;6.80;;;;;;;;;;4955048;29;20301;-76
2022/07/25 14:34:32;;;;;;;10.07;7.38;;;;;;;;;;4965373;28;20215;-77
2022/07/25 14:37:02;;;;;;;7.65;6.95;;;;;;;;;;4974448;28;22211;-76
2022/07/25 14:39:30;;;;;;;8.23;7.47;;;;;;;;;;4974975;28;20710;-76
2022/07/25 14:41:59;;;;;;;7.38;6.78;;;;;;;;;;4974840;28;20564;-77
2022/07/25 14:44:27;;;;;;;7.82;7.13;;;;;;;;;;4973828;28;20258;-76
2022/07/25 14:46:57;;;;;;;7.80;7.10;;;;;;;;;;4973990;28;20229;-76
2022/07/25 14:49:27;;;;;;;7.78;6.97;;;;;;;;;;4974333;28;20186;-76
2022/07/25 14:51:56;;;;;;;8.38;7.20;;;;;;;;;;4975970;28;20229;-76
2022/07/25 14:54:27;;;;;;;8.30;6.90;;;;;;;;;;4977471;28;20202;-76
2022/07/25 14:56:55;;;;;;;9.65;8.07;;;;;;;;;;4977851;28;20571;-76
2022/07/25 14:59:24;;;;;;;8.95;8.07;;;;;;;;;;4977608;28;20249;-76